Flight Track Log - Related Links

Times and Time Zones

All times are in EDT time to prevent confusion due to time zone crossing. See the N575EW flight status page for this flight to view local times or setup timezone preferences in your user account.

Time Position Orientation Groundspeed Altitude Reporting Facility
EDT Latitude Longitude Course Direction KTS MPH feet Rate Location/Type
Sat 04:59:06 PM 41.7136 -72.6539 235° Southwest 134 154 1,300  Level Boston Center
Sat 04:59:43 PM 41.6994 -72.6806 235° Southwest 155 178 2,500 1,862 Climbing Boston Center
Sat 05:00:04 PM 41.6936 -72.7042 252° West 166 191 3,100 1,082 Climbing Boston Center
Sat 05:00:44 PM 41.6975 -72.7547 276° West 248 285 3,600 1,180 Climbing Boston Center
Sat 05:01:05 PM 41.7161 -72.7800 315° West 243 280 4,300 2,400 Climbing Boston Center
Sat 05:01:44 PM 41.7467 -72.8214 315° West 264 304 6,000 2,700 Climbing Boston Center
Sat 05:02:05 PM 41.7650 -72.8472 314° West 252 290 7,000 2,900 Climbing Boston Center
Sat 05:02:44 PM 41.7811 -72.8972 293° West 230 265 8,900 2,438 Climbing Boston Center
Sat 05:03:09 PM 41.7908 -72.9256 295° West 229 264 9,600 1,271 Climbing Boston Center
Sat 05:04:09 PM 41.8089 -73.0172 285° West 264 304 10,700 1,770 Climbing Boston Center
Sat 05:05:11 PM 41.8022 -73.1197 265° West 259 298 13,200 2,410 Climbing Boston Center
Sat 05:06:11 PM 41.7967 -73.2056 265° West 229 264 15,600 2,050 Climbing Boston Center
Sat 05:07:11 PM 41.7914 -73.2881 265° West 224 258 17,300 1,721 Climbing Boston Center
Sat 05:08:13 PM 41.7847 -73.3742 264° West 231 266 19,100 1,610 Climbing Boston Center
Sat 05:09:14 PM 41.7811 -73.4522 266° West 217 250 20,600 1,475 Climbing Boston Center
Sat 05:10:15 PM 41.7767 -73.5281 266° West 208 239 22,100 1,488 Climbing Boston Center
Sat 05:11:15 PM 41.7706 -73.5961 263° West 193 222 23,600 1,488 Climbing Boston Center
Sat 05:12:16 PM 41.7369 -73.6300 217° Southwest 160 184 25,100 1,488 Climbing Boston Center
Sat 05:13:16 PM 41.7036 -73.6586 213° Southwest 146 168 26,600 1,339 Climbing Boston Center
Sat 05:14:17 PM 41.6736 -73.6839 212° Southwest 133 153 27,800 677 Climbing Boston Center
Sat 05:15:20 PM 41.6422 -73.7097 212° Southwest 135 155 28,000 98 Climbing Boston Center
Sat 05:16:20 PM 41.6011 -73.7442 212° Southwest 169 194 28,000  Level Boston Center
Sat 05:16:57 PM 41.5606 -73.7764 211° Southwest 174 200 28,000  Level New York Center
Sat 05:17:57 PM 41.5097 -73.8158 210° Southwest 202 232 28,000  Level New York Center
Sat 05:18:57 PM 41.4544 -73.8603 211° Southwest 222 255 28,000  Level New York Center
Sat 05:19:57 PM 41.4011 -73.9019 210° Southwest 229 264 28,000  Level New York Center
Sat 05:20:57 PM 41.3439 -73.9464 210° Southwest 235 270 28,000  Level New York Center
Sat 05:21:57 PM 41.2864 -73.9906 210° Southwest 235 270 28,000  Level New York Center
Sat 05:22:57 PM 41.2289 -74.0347 210° Southwest 235 270 28,000  Level New York Center
Sat 05:23:57 PM 41.1694 -74.0786 209° Southwest 235 270 28,000  Level New York Center
Sat 05:24:57 PM 41.1200 -74.1367 222° Southwest 235 270 28,000  Level New York Center
Sat 05:25:57 PM 41.0886 -74.2094 240° Southwest 230 265 28,000  Level New York Center
Sat 05:26:57 PM 41.0511 -74.2847 237° Southwest 230 265 28,000  Level New York Center
Sat 05:27:57 PM 41.0175 -74.3600 239° Southwest 242 278 28,000  Level New York Center
Sat 05:28:57 PM 40.9797 -74.4347 236° Southwest 248 285 28,000  Level New York Center
Sat 05:29:57 PM 40.9439 -74.5125 239° Southwest 248 285 28,000  Level New York Center
Sat 05:30:57 PM 40.9103 -74.5903 240° Southwest 248 285 28,000  Level New York Center
Sat 05:31:57 PM 40.8744 -74.6678 239° Southwest 248 285 28,000  Level New York Center
Sat 05:32:58 PM 40.8406 -74.7456 240° Southwest 248 285 28,000  Level New York Center
Sat 05:33:57 PM 40.8044 -74.8231 238° Southwest 248 285 28,000  Level New York Center
Sat 05:34:57 PM 40.7708 -74.8975 239° Southwest 248 285 28,000  Level New York Center
Sat 05:35:57 PM 40.7367 -74.9750 240° Southwest 248 285 28,000  Level New York Center
Sat 05:36:57 PM 40.7028 -75.0522 240° Southwest 248 285 28,000  Level New York Center
Sat 05:37:57 PM 40.6664 -75.1319 239° Southwest 248 285 28,000  Level New York Center
Sat 05:38:57 PM 40.6303 -75.2064 237° Southwest 248 285 28,000  Level New York Center
Sat 05:39:57 PM 40.5961 -75.2833 240° Southwest 248 285 28,000  Level New York Center
Sat 05:40:57 PM 40.5619 -75.3603 240° Southwest 248 285 28,000 -200 Level New York Center
Sat 05:41:57 PM 40.5258 -75.4344 237° Southwest 248 285 27,600 -800 Descending New York Center
Sat 05:42:57 PM 40.4847 -75.5189 237° Southwest 255 293 26,400 -1,450 Descending New York Center
Sat 05:43:57 PM 40.4436 -75.6089 239° Southwest 269 310 24,700 -1,750 Descending New York Center
Sat 05:44:57 PM 40.4092 -75.6883 240° Southwest 275 316 22,900 -2,000 Descending New York Center
Sat 05:45:57 PM 40.3703 -75.7672 237° Southwest 262 302 20,700 -1,450 Descending New York Center
Sat 05:46:57 PM 40.3336 -75.8461 239° Southwest 262 302 20,000 -500 Descending New York Center
Sat 05:47:57 PM 40.2925 -75.9331 238° Southwest 271 312 19,700 -744 Descending New York Center
Sat 05:48:58 PM 40.2508 -76.0253 239° Southwest 292 336 18,500 -1,190 Descending New York Center
Sat 05:49:58 PM 40.2117 -76.1064 238° Southwest 297 342 17,300 -756 Descending New York Center
Sat 05:50:57 PM 40.1681 -76.1956 237° Southwest 297 342 17,000 -151 Descending New York Center
Sat 05:51:57 PM 40.1194 -76.2975 238° Southwest 297 342 17,000  Level New York Center
Sat 05:52:57 PM 40.0778 -76.3892 239° Southwest 297 342 17,000 -527 Level New York Center
Sat 05:55:22 PM 39.9833 -76.6000 240° Southwest 305 351 15,200 -569 Descending Potomac TRACON
Sat 05:56:28 PM 39.9167 -76.7167 233° Southwest 303 349 15,000 -50 Descending Potomac TRACON
Sat 05:57:22 PM 39.8833 -76.7833 237° Southwest 301 346 15,100 -500 Climbing Potomac TRACON
Sat 05:58:28 PM 39.8333 -76.9000 241° Southwest 300 345 14,000 -850 Descending Potomac TRACON
Sat 05:59:22 PM 39.8000 -76.9667 237° Southwest 302 348 13,400 -737 Descending Potomac TRACON
Sat 06:00:22 PM 39.7667 -77.0667 247° West 298 343 12,600 -793 Descending Potomac TRACON
Sat 06:01:23 PM 39.7167 -77.1500 232° Southwest 294 338 11,800 -843 Descending Potomac TRACON
Sat 06:02:23 PM 39.6833 -77.2500 247° West 290 334 10,900 -950 Descending Potomac TRACON
Sat 06:03:23 PM 39.6333 -77.3167 226° Southwest 270 311 9,900 -1,190 Descending Potomac TRACON
Sat 06:04:24 PM 39.5667 -77.3500 201° Southwest 255 293 8,500 -1,289 Descending Potomac TRACON
Sat 06:05:24 PM 39.5000 -77.3500 180° South 275 316 7,300 -700 Descending Potomac TRACON
Sat 06:06:24 PM 39.4167 -77.3667 189° South 274 315 7,100 -900 Descending Potomac TRACON
Sat 06:07:24 PM 39.3333 -77.3667 180° South 284 327 5,500 -1,096 Descending Potomac TRACON
Sat 06:08:19 PM 39.2667 -77.3667 180° South 282 325 5,000 -730 Descending Potomac TRACON
Sat 06:09:19 PM 39.1833 -77.3667 180° South 287 330 4,100 -450 Descending Potomac TRACON
Sat 06:10:19 PM 39.1000 -77.3667 180° South 272 313 4,100 -381 Level Potomac TRACON
Sat 06:11:25 PM 39.0167 -77.3667 180° South 287 330 3,300 -476 Descending Potomac TRACON
Sat 06:12:25 PM 38.9333 -77.3667 180° South 275 316 3,100 -100 Descending Potomac TRACON
Sat 06:13:25 PM 38.8667 -77.3667 180° South 274 315 3,100 -158 Level Potomac TRACON
Sat 06:14:19 PM 38.8167 -77.4167 218° Southwest 241 277 2,800 -421 Descending Potomac TRACON
Sat 06:15:19 PM 38.8500 -77.4667 311° West 221 254 2,300 -762 Descending Potomac TRACON
Sat 06:16:25 PM 38.9000 -77.4667 360° North 156 180 1,200 -1,000 Descending Potomac TRACON

Login

Don't have an account? Register now (free) for customized features, flight alerts, and more!